sensor_id;sensor_type;location;lat;lon;timestamp;pressure;altitude;pressure_sealevel;temperature;humidity
43683;BME280;29285;52.128;21.060;2023-03-29T00:02:02;100753.51;;;-0.56;77.68
43683;BME280;29285;52.128;21.060;2023-03-29T00:07:02;100753.45;;;-0.57;77.66
43683;BME280;29285;52.128;21.060;2023-03-29T00:12:04;100756.35;;;-0.57;77.76
43683;BME280;29285;52.128;21.060;2023-03-29T00:17:05;100758.08;;;-0.61;77.85
43683;BME280;29285;52.128;21.060;2023-03-29T00:22:06;100759.17;;;-0.69;77.70
43683;BME280;29285;52.128;21.060;2023-03-29T00:27:07;100757.70;;;-0.72;77.56
43683;BME280;29285;52.128;21.060;2023-03-29T00:32:08;100756.33;;;-0.77;77.75
43683;BME280;29285;52.128;21.060;2023-03-29T00:37:09;100753.60;;;-0.82;77.76
43683;BME280;29285;52.128;21.060;2023-03-29T00:42:13;100758.91;;;-0.85;77.79
43683;BME280;29285;52.128;21.060;2023-03-29T00:47:15;100759.69;;;-0.92;77.73
43683;BME280;29285;52.128;21.060;2023-03-29T00:52:18;100758.61;;;-0.98;77.79
43683;BME280;29285;52.128;21.060;2023-03-29T00:57:21;100754.64;;;-1.00;77.77
43683;BME280;29285;52.128;21.060;2023-03-29T01:02:24;100756.16;;;-1.00;77.75
43683;BME280;29285;52.128;21.060;2023-03-29T01:07:29;100758.83;;;-1.02;77.84
43683;BME280;29285;52.128;21.060;2023-03-29T01:12:36;100762.02;;;-1.07;77.93
43683;BME280;29285;52.128;21.060;2023-03-29T01:17:39;100758.24;;;-1.08;77.87
43683;BME280;29285;52.128;21.060;2023-03-29T01:28:25;100758.14;;;-1.06;78.05
43683;BME280;29285;52.128;21.060;2023-03-29T01:33:32;100753.98;;;-1.08;78.08
43683;BME280;29285;52.128;21.060;2023-03-29T01:38:44;100754.70;;;-1.11;77.93
43683;BME280;29285;52.128;21.060;2023-03-29T01:48:50;100762.42;;;-1.19;77.99
43683;BME280;29285;52.128;21.060;2023-03-29T01:54:11;100760.19;;;-1.20;77.98
43683;BME280;29285;52.128;21.060;2023-03-29T01:59:16;100765.45;;;-1.15;78.11
43683;BME280;29285;52.128;21.060;2023-03-29T02:04:25;100759.25;;;-1.17;78.15
43683;BME280;29285;52.128;21.060;2023-03-29T02:09:28;100761.73;;;-1.19;78.13
43683;BME280;29285;52.128;21.060;2023-03-29T02:14:29;100764.85;;;-1.22;78.15
43683;BME280;29285;52.128;21.060;2023-03-29T02:19:30;100768.39;;;-1.23;78.13
43683;BME280;29285;52.128;21.060;2023-03-29T02:24:33;100767.77;;;-1.22;78.10
43683;BME280;29285;52.128;21.060;2023-03-29T02:29:36;100770.69;;;-1.21;78.32
43683;BME280;29285;52.128;21.060;2023-03-29T02:34:42;100769.19;;;-1.25;78.38
43683;BME280;29285;52.128;21.060;2023-03-29T02:39:47;100769.35;;;-1.29;78.41
43683;BME280;29285;52.128;21.060;2023-03-29T02:44:49;100768.95;;;-1.30;78.44
43683;BME280;29285;52.128;21.060;2023-03-29T02:49:52;100766.21;;;-1.35;78.55
43683;BME280;29285;52.128;21.060;2023-03-29T02:54:53;100768.31;;;-1.38;78.53
43683;BME280;29285;52.128;21.060;2023-03-29T02:59:55;100767.77;;;-1.39;78.75
43683;BME280;29285;52.128;21.060;2023-03-29T03:04:56;100774.89;;;-1.40;78.79
43683;BME280;29285;52.128;21.060;2023-03-29T03:09:58;100782.14;;;-1.41;78.95
43683;BME280;29285;52.128;21.060;2023-03-29T03:14:59;100784.39;;;-1.45;79.05
43683;BME280;29285;52.128;21.060;2023-03-29T03:20:01;100781.20;;;-1.48;79.27
43683;BME280;29285;52.128;21.060;2023-03-29T03:25:02;100783.98;;;-1.51;79.30
43683;BME280;29285;52.128;21.060;2023-03-29T03:30:03;100786.20;;;-1.55;79.41
43683;BME280;29285;52.128;21.060;2023-03-29T03:35:05;100791.58;;;-1.61;79.48
43683;BME280;29285;52.128;21.060;2023-03-29T03:40:07;100792.00;;;-1.63;79.69
43683;BME280;29285;52.128;21.060;2023-03-29T03:45:11;100786.39;;;-1.63;79.94
43683;BME280;29285;52.128;21.060;2023-03-29T03:50:12;100789.13;;;-1.63;80.02
43683;BME280;29285;52.128;21.060;2023-03-29T03:55:13;100794.73;;;-1.63;80.29
43683;BME280;29285;52.128;21.060;2023-03-29T04:00:14;100796.38;;;-1.65;80.47
43683;BME280;29285;52.128;21.060;2023-03-29T04:05:22;100797.09;;;-1.64;80.75
43683;BME280;29285;52.128;21.060;2023-03-29T04:10:23;100803.98;;;-1.66;81.02
43683;BME280;29285;52.128;21.060;2023-03-29T04:15:25;100809.98;;;-1.65;81.07
43683;BME280;29285;52.128;21.060;2023-03-29T04:20:26;100814.07;;;-1.65;81.43
43683;BME280;29285;52.128;21.060;2023-03-29T04:25:27;100818.73;;;-1.67;81.58
43683;BME280;29285;52.128;21.060;2023-03-29T04:30:27;100824.96;;;-1.65;81.90
43683;BME280;29285;52.128;21.060;2023-03-29T04:35:28;100821.56;;;-1.64;82.06
43683;BME280;29285;52.128;21.060;2023-03-29T04:40:29;100825.30;;;-1.60;82.29
43683;BME280;29285;52.128;21.060;2023-03-29T04:45:30;100822.66;;;-1.54;82.54
43683;BME280;29285;52.128;21.060;2023-03-29T04:50:31;100816.55;;;-1.50;82.87
43683;BME280;29285;52.128;21.060;2023-03-29T04:55:32;100822.59;;;-1.43;83.19
43683;BME280;29285;52.128;21.060;2023-03-29T05:00:33;100823.05;;;-1.36;83.42
43683;BME280;29285;52.128;21.060;2023-03-29T05:05:34;100821.69;;;-1.23;83.74
43683;BME280;29285;52.128;21.060;2023-03-29T05:10:35;100821.92;;;-1.13;83.97
43683;BME280;29285;52.128;21.060;2023-03-29T05:15:36;100825.77;;;-1.02;84.36
43683;BME280;29285;52.128;21.060;2023-03-29T05:20:37;100829.52;;;-0.97;84.39
43683;BME280;29285;52.128;21.060;2023-03-29T05:25:38;100829.06;;;-0.91;84.64
43683;BME280;29285;52.128;21.060;2023-03-29T05:30:40;100831.85;;;-0.81;84.88
43683;BME280;29285;52.128;21.060;2023-03-29T05:35:41;100829.82;;;-0.76;84.97
43683;BME280;29285;52.128;21.060;2023-03-29T05:40:43;100835.04;;;-0.73;85.09
43683;BME280;29285;52.128;21.060;2023-03-29T05:45:44;100833.98;;;-0.69;85.35
43683;BME280;29285;52.128;21.060;2023-03-29T05:50:45;100830.66;;;-0.58;85.69
43683;BME280;29285;52.128;21.060;2023-03-29T05:55:47;100836.98;;;-0.43;85.94
43683;BME280;29285;52.128;21.060;2023-03-29T06:00:48;100838.77;;;-0.32;86.27
43683;BME280;29285;52.128;21.060;2023-03-29T06:05:56;100836.42;;;-0.16;86.61
43683;BME280;29285;52.128;21.060;2023-03-29T06:10:58;100841.02;;;-0.07;86.92
43683;BME280;29285;52.128;21.060;2023-03-29T06:16:00;100843.16;;;0.06;87.12
43683;BME280;29285;52.128;21.060;2023-03-29T06:21:01;100840.37;;;0.19;87.33
43683;BME280;29285;52.128;21.060;2023-03-29T06:26:03;100840.71;;;0.29;87.50
43683;BME280;29285;52.128;21.060;2023-03-29T06:31:05;100849.60;;;0.34;87.67
43683;BME280;29285;52.128;21.060;2023-03-29T06:36:06;100848.09;;;0.46;87.79
43683;BME280;29285;52.128;21.060;2023-03-29T06:41:08;100849.33;;;0.57;87.86
43683;BME280;29285;52.128;21.060;2023-03-29T06:46:10;100854.61;;;0.68;88.13
43683;BME280;29285;52.128;21.060;2023-03-29T06:51:11;100857.54;;;0.78;88.25
43683;BME280;29285;52.128;21.060;2023-03-29T06:56:12;100857.73;;;0.91;88.44
43683;BME280;29285;52.128;21.060;2023-03-29T07:01:14;100855.95;;;1.10;88.67
43683;BME280;29285;52.128;21.060;2023-03-29T07:06:15;100860.73;;;1.32;89.33
43683;BME280;29285;52.128;21.060;2023-03-29T07:11:20;100862.07;;;1.43;89.47
43683;BME280;29285;52.128;21.060;2023-03-29T07:16:21;100866.08;;;1.51;89.40
43683;BME280;29285;52.128;21.060;2023-03-29T07:21:22;100859.89;;;1.62;89.28
43683;BME280;29285;52.128;21.060;2023-03-29T07:26:23;100863.63;;;1.79;89.47
43683;BME280;29285;52.128;21.060;2023-03-29T07:31:25;100861.54;;;1.84;89.25
43683;BME280;29285;52.128;21.060;2023-03-29T07:36:29;100860.26;;;1.93;89.44
43683;BME280;29285;52.128;21.060;2023-03-29T07:41:29;100853.88;;;2.04;89.43
43683;BME280;29285;52.128;21.060;2023-03-29T07:46:30;100854.30;;;2.08;89.63
43683;BME280;29285;52.128;21.060;2023-03-29T07:51:31;100851.11;;;2.16;89.48
43683;BME280;29285;52.128;21.060;2023-03-29T07:56:32;100859.49;;;2.22;89.43
43683;BME280;29285;52.128;21.060;2023-03-29T08:01:34;100858.70;;;2.18;88.95
43683;BME280;29285;52.128;21.060;2023-03-29T08:06:35;100852.58;;;2.26;89.06
43683;BME280;29285;52.128;21.060;2023-03-29T08:11:36;100849.83;;;2.33;89.37
43683;BME280;29285;52.128;21.060;2023-03-29T08:16:39;100844.33;;;2.45;89.44
43683;BME280;29285;52.128;21.060;2023-03-29T08:21:40;100843.07;;;2.56;89.45
43683;BME280;29285;52.128;21.060;2023-03-29T08:26:41;100839.27;;;2.62;89.05
43683;BME280;29285;52.128;21.060;2023-03-29T08:31:43;100837.11;;;2.73;89.08
43683;BME280;29285;52.128;21.060;2023-03-29T08:36:44;100829.98;;;2.90;89.02
43683;BME280;29285;52.128;21.060;2023-03-29T08:46:52;100836.58;;;3.16;88.72
43683;BME280;29285;52.128;21.060;2023-03-29T08:51:57;100825.52;;;3.20;88.45
43683;BME280;29285;52.128;21.060;2023-03-29T08:57:03;100823.77;;;3.27;87.97
43683;BME280;29285;52.128;21.060;2023-03-29T09:02:08;100824.60;;;3.42;87.69
43683;BME280;29285;52.128;21.060;2023-03-29T09:07:12;100824.22;;;3.48;87.24
43683;BME280;29285;52.128;21.060;2023-03-29T09:12:18;100825.81;;;3.51;86.18
43683;BME280;29285;52.128;21.060;2023-03-29T09:27:28;100809.30;;;3.66;83.58
43683;BME280;29285;52.128;21.060;2023-03-29T09:37:59;100813.95;;;3.84;81.18
43683;BME280;29285;52.128;21.060;2023-03-29T09:43:02;100797.50;;;3.94;80.30
43683;BME280;29285;52.128;21.060;2023-03-29T09:53:12;100791.90;;;4.07;78.65
43683;BME280;29285;52.128;21.060;2023-03-29T09:58:24;100785.38;;;4.08;77.27
43683;BME280;29285;52.128;21.060;2023-03-29T10:03:28;100789.84;;;4.08;75.78
43683;BME280;29285;52.128;21.060;2023-03-29T10:08:39;100780.34;;;4.05;73.70
43683;BME280;29285;52.128;21.060;2023-03-29T10:13:42;100773.38;;;3.99;71.71
43683;BME280;29285;52.128;21.060;2023-03-29T10:18:44;100776.38;;;4.13;70.39
43683;BME280;29285;52.128;21.060;2023-03-29T10:23:47;100778.27;;;4.24;69.27
43683;BME280;29285;52.128;21.060;2023-03-29T10:28:50;100782.91;;;4.24;68.28
43683;BME280;29285;52.128;21.060;2023-03-29T10:33:52;100778.17;;;4.29;67.06
43683;BME280;29285;52.128;21.060;2023-03-29T10:38:55;100773.58;;;4.41;66.22
43683;BME280;29285;52.128;21.060;2023-03-29T10:43:57;100780.43;;;4.63;65.86
43683;BME280;29285;52.128;21.060;2023-03-29T10:49:00;100776.48;;;4.86;65.51
43683;BME280;29285;52.128;21.060;2023-03-29T10:54:05;100774.38;;;5.07;65.19
43683;BME280;29285;52.128;21.060;2023-03-29T11:09:45;100767.83;;;5.62;63.96
43683;BME280;29285;52.128;21.060;2023-03-29T11:20:00;100744.95;;;5.98;63.09
43683;BME280;29285;52.128;21.060;2023-03-29T11:30:41;100736.41;;;6.44;62.42
43683;BME280;29285;52.128;21.060;2023-03-29T11:41:17;100722.18;;;6.87;60.83
43683;BME280;29285;52.128;21.060;2023-03-29T11:46:30;100722.17;;;7.20;60.74
43683;BME280;29285;52.128;21.060;2023-03-29T11:51:37;100721.35;;;7.32;60.14
43683;BME280;29285;52.128;21.060;2023-03-29T11:56:46;100707.08;;;7.49;59.61
43683;BME280;29285;52.128;21.060;2023-03-29T12:01:50;100708.68;;;7.69;59.14
43683;BME280;29285;52.128;21.060;2023-03-29T12:07:12;100698.00;;;7.86;58.65
43683;BME280;29285;52.128;21.060;2023-03-29T12:12:28;100696.79;;;7.93;57.84
43683;BME280;29285;52.128;21.060;2023-03-29T12:17:36;100692.65;;;8.10;57.12
43683;BME280;29285;52.128;21.060;2023-03-29T12:22:38;100690.92;;;8.28;56.53
43683;BME280;29285;52.128;21.060;2023-03-29T12:27:47;100680.02;;;8.40;55.76
43683;BME280;29285;52.128;21.060;2023-03-29T12:32:57;100675.84;;;8.61;55.32
43683;BME280;29285;52.128;21.060;2023-03-29T12:43:02;100669.11;;;9.07;54.46
43683;BME280;29285;52.128;21.060;2023-03-29T12:48:05;100664.27;;;9.09;53.56
43683;BME280;29285;52.128;21.060;2023-03-29T12:53:14;100658.48;;;9.21;52.81
43683;BME280;29285;52.128;21.060;2023-03-29T13:03:48;100657.32;;;9.46;51.73
43683;BME280;29285;52.128;21.060;2023-03-29T13:08:56;100642.05;;;9.49;50.77
43683;BME280;29285;52.128;21.060;2023-03-29T13:13:58;100646.08;;;9.69;50.45
43683;BME280;29285;52.128;21.060;2023-03-29T13:19:02;100639.15;;;10.09;49.99
43683;BME280;29285;52.128;21.060;2023-03-29T13:39:49;100618.92;;;10.72;47.79
43683;BME280;29285;52.128;21.060;2023-03-29T13:44:50;100623.29;;;10.86;47.38
43683;BME280;29285;52.128;21.060;2023-03-29T13:49:54;100607.16;;;10.97;46.92
43683;BME280;29285;52.128;21.060;2023-03-29T14:00:03;100601.38;;;11.49;46.52
43683;BME280;29285;52.128;21.060;2023-03-29T14:05:07;100601.02;;;11.72;46.24
43683;BME280;29285;52.128;21.060;2023-03-29T14:10:17;100592.92;;;12.09;46.13
43683;BME280;29285;52.128;21.060;2023-03-29T14:15:20;100593.75;;;12.21;45.54
43683;BME280;29285;52.128;21.060;2023-03-29T14:20:22;100588.61;;;12.27;44.77
43683;BME280;29285;52.128;21.060;2023-03-29T14:25:25;100577.27;;;12.64;44.43
43683;BME280;29285;52.128;21.060;2023-03-29T14:30:28;100569.59;;;12.90;44.10
43683;BME280;29285;52.128;21.060;2023-03-29T14:35:31;100568.38;;;12.81;42.80
43683;BME280;29285;52.128;21.060;2023-03-29T14:40:32;100569.80;;;12.72;41.63
43683;BME280;29285;52.128;21.060;2023-03-29T14:45:34;100569.88;;;12.92;41.28
43683;BME280;29285;52.128;21.060;2023-03-29T14:50:35;100569.73;;;13.15;41.36
43683;BME280;29285;52.128;21.060;2023-03-29T14:55:36;100568.15;;;13.23;41.01
43683;BME280;29285;52.128;21.060;2023-03-29T15:00:38;100562.26;;;13.79;40.95
43683;BME280;29285;52.128;21.060;2023-03-29T15:05:49;100556.82;;;15.27;41.69
43683;BME280;29285;52.128;21.060;2023-03-29T15:10:52;100561.34;;;15.88;40.43
43683;BME280;29285;52.128;21.060;2023-03-29T15:15:55;100556.30;;;15.71;39.08
43683;BME280;29285;52.128;21.060;2023-03-29T15:20:57;100548.68;;;16.01;38.68
43683;BME280;29285;52.128;21.060;2023-03-29T15:26:06;100548.83;;;15.32;37.68
43683;BME280;29285;52.128;21.060;2023-03-29T15:31:10;100552.06;;;14.47;36.48
43683;BME280;29285;52.128;21.060;2023-03-29T15:36:12;100549.77;;;13.41;35.44
43683;BME280;29285;52.128;21.060;2023-03-29T15:41:14;100548.67;;;12.32;34.46
43683;BME280;29285;52.128;21.060;2023-03-29T15:46:15;100547.59;;;11.86;34.32
43683;BME280;29285;52.128;21.060;2023-03-29T15:51:16;100547.50;;;11.17;34.00
43683;BME280;29285;52.128;21.060;2023-03-29T15:56:18;100545.54;;;10.57;33.67
43683;BME280;29285;52.128;21.060;2023-03-29T16:01:29;100548.41;;;10.17;33.50
43683;BME280;29285;52.128;21.060;2023-03-29T16:06:34;100542.73;;;9.78;33.34
43683;BME280;29285;52.128;21.060;2023-03-29T16:11:35;100538.88;;;9.42;33.07
43683;BME280;29285;52.128;21.060;2023-03-29T16:16:36;100533.13;;;8.98;32.84
43683;BME280;29285;52.128;21.060;2023-03-29T16:21:37;100532.59;;;8.72;32.66
43683;BME280;29285;52.128;21.060;2023-03-29T16:26:38;100531.59;;;8.65;32.74
43683;BME280;29285;52.128;21.060;2023-03-29T16:31:39;100527.17;;;8.41;32.69
43683;BME280;29285;52.128;21.060;2023-03-29T16:36:41;100525.35;;;8.16;32.64
43683;BME280;29285;52.128;21.060;2023-03-29T16:41:43;100524.67;;;8.07;32.64
43683;BME280;29285;52.128;21.060;2023-03-29T16:46:47;100520.37;;;8.02;32.77
43683;BME280;29285;52.128;21.060;2023-03-29T16:51:48;100513.84;;;7.92;32.88
43683;BME280;29285;52.128;21.060;2023-03-29T16:56:49;100513.86;;;7.83;32.97
43683;BME280;29285;52.128;21.060;2023-03-29T17:01:50;100513.69;;;7.80;33.16
43683;BME280;29285;52.128;21.060;2023-03-29T17:06:51;100508.85;;;7.76;33.35
43683;BME280;29285;52.128;21.060;2023-03-29T17:11:53;100510.59;;;7.66;33.41
43683;BME280;29285;52.128;21.060;2023-03-29T17:16:54;100514.05;;;7.63;33.52
43683;BME280;29285;52.128;21.060;2023-03-29T17:21:55;100513.55;;;7.60;33.63
43683;BME280;29285;52.128;21.060;2023-03-29T17:26:56;100507.31;;;7.59;33.82
43683;BME280;29285;52.128;21.060;2023-03-29T17:31:57;100508.88;;;7.63;33.96
43683;BME280;29285;52.128;21.060;2023-03-29T17:36:58;100514.73;;;7.72;34.14
43683;BME280;29285;52.128;21.060;2023-03-29T17:41:59;100514.90;;;7.75;34.38
43683;BME280;29285;52.128;21.060;2023-03-29T17:47:00;100519.23;;;7.69;34.43
43683;BME280;29285;52.128;21.060;2023-03-29T17:52:01;100516.48;;;7.65;34.59
43683;BME280;29285;52.128;21.060;2023-03-29T17:57:03;100520.95;;;7.65;34.76
43683;BME280;29285;52.128;21.060;2023-03-29T18:02:04;100524.77;;;7.61;34.87
43683;BME280;29285;52.128;21.060;2023-03-29T18:07:05;100529.27;;;7.51;34.99
43683;BME280;29285;52.128;21.060;2023-03-29T18:12:06;100530.64;;;7.43;35.05
43683;BME280;29285;52.128;21.060;2023-03-29T18:17:07;100534.44;;;7.38;35.17
43683;BME280;29285;52.128;21.060;2023-03-29T18:22:09;100533.05;;;7.42;35.34
43683;BME280;29285;52.128;21.060;2023-03-29T18:27:10;100523.05;;;7.39;35.42
43683;BME280;29285;52.128;21.060;2023-03-29T18:32:12;100514.77;;;7.39;35.55
43683;BME280;29285;52.128;21.060;2023-03-29T18:37:13;100518.73;;;7.35;35.66
43683;BME280;29285;52.128;21.060;2023-03-29T18:42:16;100511.13;;;7.29;35.85
43683;BME280;29285;52.128;21.060;2023-03-29T18:47:20;100511.82;;;7.17;35.80
43683;BME280;29285;52.128;21.060;2023-03-29T18:52:21;100520.25;;;7.07;35.85
43683;BME280;29285;52.128;21.060;2023-03-29T18:57:23;100518.34;;;6.95;35.89
43683;BME280;29285;52.128;21.060;2023-03-29T19:02:24;100516.92;;;6.80;35.93
43683;BME280;29285;52.128;21.060;2023-03-29T19:07:25;100526.02;;;6.64;36.00
43683;BME280;29285;52.128;21.060;2023-03-29T19:12:27;100524.27;;;6.56;36.05
43683;BME280;29285;52.128;21.060;2023-03-29T19:17:28;100519.92;;;6.48;36.16
43683;BME280;29285;52.128;21.060;2023-03-29T19:22:29;100518.36;;;6.44;36.20
43683;BME280;29285;52.128;21.060;2023-03-29T19:27:31;100514.92;;;6.44;36.49
43683;BME280;29285;52.128;21.060;2023-03-29T19:32:32;100519.58;;;6.46;36.68
43683;BME280;29285;52.128;21.060;2023-03-29T19:37:33;100519.22;;;6.42;36.61
43683;BME280;29285;52.128;21.060;2023-03-29T19:42:34;100516.08;;;6.33;36.81
43683;BME280;29285;52.128;21.060;2023-03-29T19:47:35;100518.97;;;6.22;36.67
43683;BME280;29285;52.128;21.060;2023-03-29T19:52:36;100510.33;;;6.18;36.76
43683;BME280;29285;52.128;21.060;2023-03-29T19:57:37;100505.14;;;6.14;37.15
43683;BME280;29285;52.128;21.060;2023-03-29T20:02:38;100500.80;;;6.08;37.17
43683;BME280;29285;52.128;21.060;2023-03-29T20:07:39;100493.77;;;6.15;37.15
43683;BME280;29285;52.128;21.060;2023-03-29T20:12:40;100491.17;;;6.10;37.58
43683;BME280;29285;52.128;21.060;2023-03-29T20:17:41;100486.95;;;6.00;37.47
43683;BME280;29285;52.128;21.060;2023-03-29T20:22:42;100479.66;;;5.87;37.63
43683;BME280;29285;52.128;21.060;2023-03-29T20:27:44;100475.46;;;5.78;37.53
43683;BME280;29285;52.128;21.060;2023-03-29T20:32:51;100467.15;;;5.69;37.76
43683;BME280;29285;52.128;21.060;2023-03-29T20:37:52;100461.48;;;5.71;37.95
43683;BME280;29285;52.128;21.060;2023-03-29T20:42:53;100447.92;;;5.79;38.10
43683;BME280;29285;52.128;21.060;2023-03-29T20:47:53;100442.77;;;5.83;38.50
43683;BME280;29285;52.128;21.060;2023-03-29T20:52:57;100441.23;;;5.85;38.47
43683;BME280;29285;52.128;21.060;2023-03-29T20:58:03;100440.56;;;5.88;38.72
43683;BME280;29285;52.128;21.060;2023-03-29T21:03:05;100435.71;;;5.83;38.81
43683;BME280;29285;52.128;21.060;2023-03-29T21:08:06;100439.80;;;5.73;38.69
43683;BME280;29285;52.128;21.060;2023-03-29T21:13:08;100441.82;;;5.67;38.93
43683;BME280;29285;52.128;21.060;2023-03-29T21:18:09;100442.29;;;5.59;39.01
43683;BME280;29285;52.128;21.060;2023-03-29T21:23:10;100436.58;;;5.52;38.98
43683;BME280;29285;52.128;21.060;2023-03-29T21:28:12;100428.60;;;5.44;39.15
43683;BME280;29285;52.128;21.060;2023-03-29T21:33:13;100431.65;;;5.36;39.20
43683;BME280;29285;52.128;21.060;2023-03-29T21:38:14;100426.63;;;5.32;39.19
43683;BME280;29285;52.128;21.060;2023-03-29T21:43:15;100427.98;;;5.27;39.40
43683;BME280;29285;52.128;21.060;2023-03-29T21:48:16;100427.25;;;5.21;39.69
43683;BME280;29285;52.128;21.060;2023-03-29T21:53:17;100428.71;;;5.12;39.76
43683;BME280;29285;52.128;21.060;2023-03-29T21:58:18;100424.92;;;5.11;39.64
43683;BME280;29285;52.128;21.060;2023-03-29T22:03:19;100422.54;;;5.14;39.92
43683;BME280;29285;52.128;21.060;2023-03-29T22:08:20;100412.05;;;5.14;40.00
43683;BME280;29285;52.128;21.060;2023-03-29T22:13:26;100406.57;;;5.17;40.25
43683;BME280;29285;52.128;21.060;2023-03-29T22:18:31;100407.23;;;5.13;40.57
43683;BME280;29285;52.128;21.060;2023-03-29T22:23:46;100396.82;;;5.01;40.36
43683;BME280;29285;52.128;21.060;2023-03-29T22:28:51;100389.15;;;4.88;40.62
43683;BME280;29285;52.128;21.060;2023-03-29T22:33:54;100388.55;;;4.79;40.62
43683;BME280;29285;52.128;21.060;2023-03-29T22:38:56;100382.31;;;4.72;41.01
43683;BME280;29285;52.128;21.060;2023-03-29T22:43:57;100386.05;;;4.68;41.09
43683;BME280;29285;52.128;21.060;2023-03-29T22:48:58;100380.67;;;4.61;41.23
43683;BME280;29285;52.128;21.060;2023-03-29T22:53:59;100372.38;;;4.57;41.51
43683;BME280;29285;52.128;21.060;2023-03-29T22:59:00;100366.20;;;4.58;42.00
43683;BME280;29285;52.128;21.060;2023-03-29T23:04:01;100365.85;;;4.57;42.09
43683;BME280;29285;52.128;21.060;2023-03-29T23:09:02;100360.71;;;4.57;42.62
43683;BME280;29285;52.128;21.060;2023-03-29T23:14:03;100364.68;;;4.60;42.87
43683;BME280;29285;52.128;21.060;2023-03-29T23:19:05;100365.55;;;4.62;43.05
43683;BME280;29285;52.128;21.060;2023-03-29T23:24:06;100354.56;;;4.62;43.32
43683;BME280;29285;52.128;21.060;2023-03-29T23:29:08;100347.00;;;4.62;43.65
43683;BME280;29285;52.128;21.060;2023-03-29T23:34:08;100343.55;;;4.60;44.08
43683;BME280;29285;52.128;21.060;2023-03-29T23:39:10;100337.84;;;4.57;44.57
43683;BME280;29285;52.128;21.060;2023-03-29T23:44:11;100337.15;;;4.56;44.99
43683;BME280;29285;52.128;21.060;2023-03-29T23:49:12;100337.99;;;4.55;45.62
43683;BME280;29285;52.128;21.060;2023-03-29T23:54:13;100333.71;;;4.56;45.88
43683;BME280;29285;52.128;21.060;2023-03-29T23:59:14;100330.94;;;4.53;46.15
